sensor_id;sensor_type;location;lat;lon;timestamp;P1;durP1;ratioP1;P2;durP2;ratioP2
11675;SDS011;5894;42.768;23.404;2022-07-17T00:00:27;3.15;;;2.90;;
11675;SDS011;5894;42.768;23.404;2022-07-17T00:02:54;3.33;;;2.72;;
11675;SDS011;5894;42.768;23.404;2022-07-17T00:05:21;2.90;;;2.70;;
11675;SDS011;5894;42.768;23.404;2022-07-17T00:07:48;3.85;;;2.90;;
11675;SDS011;5894;42.768;23.404;2022-07-17T00:10:15;3.47;;;2.60;;
11675;SDS011;5894;42.768;23.404;2022-07-17T00:12:43;3.20;;;2.90;;
11675;SDS011;5894;42.768;23.404;2022-07-17T00:15:10;2.90;;;2.70;;
11675;SDS011;5894;42.768;23.404;2022-07-17T00:17:39;3.67;;;3.35;;
11675;SDS011;5894;42.768;23.404;2022-07-17T00:20:06;4.05;;;3.25;;
11675;SDS011;5894;42.768;23.404;2022-07-17T00:22:34;3.60;;;3.30;;
11675;SDS011;5894;42.768;23.404;2022-07-17T00:25:01;3.20;;;2.90;;
11675;SDS011;5894;42.768;23.404;2022-07-17T00:27:29;3.47;;;3.17;;
11675;SDS011;5894;42.768;23.404;2022-07-17T00:29:55;3.35;;;3.05;;
11675;SDS011;5894;42.768;23.404;2022-07-17T00:32:22;4.00;;;2.85;;
11675;SDS011;5894;42.768;23.404;2022-07-17T00:34:51;3.30;;;2.65;;
11675;SDS011;5894;42.768;23.404;2022-07-17T00:37:17;3.83;;;3.10;;
11675;SDS011;5894;42.768;23.404;2022-07-17T00:39:44;3.30;;;3.00;;
11675;SDS011;5894;42.768;23.404;2022-07-17T00:42:11;3.60;;;3.15;;
11675;SDS011;5894;42.768;23.404;2022-07-17T00:44:39;5.65;;;3.20;;
11675;SDS011;5894;42.768;23.404;2022-07-17T00:47:09;3.70;;;3.10;;
11675;SDS011;5894;42.768;23.404;2022-07-17T00:49:38;3.90;;;3.40;;
11675;SDS011;5894;42.768;23.404;2022-07-17T00:52:06;3.50;;;3.20;;
11675;SDS011;5894;42.768;23.404;2022-07-17T00:54:34;4.30;;;2.95;;
11675;SDS011;5894;42.768;23.404;2022-07-17T00:57:04;4.25;;;3.10;;
11675;SDS011;5894;42.768;23.404;2022-07-17T00:59:34;4.07;;;3.00;;
11675;SDS011;5894;42.768;23.404;2022-07-17T01:02:02;3.28;;;2.97;;
11675;SDS011;5894;42.768;23.404;2022-07-17T01:04:30;4.35;;;3.22;;
11675;SDS011;5894;42.768;23.404;2022-07-17T01:06:58;5.15;;;3.05;;
11675;SDS011;5894;42.768;23.404;2022-07-17T01:09:27;3.28;;;2.97;;
11675;SDS011;5894;42.768;23.404;2022-07-17T01:11:54;3.95;;;2.88;;
11675;SDS011;5894;42.768;23.404;2022-07-17T01:14:22;3.22;;;2.92;;
11675;SDS011;5894;42.768;23.404;2022-07-17T01:16:50;3.08;;;2.78;;
11675;SDS011;5894;42.768;23.404;2022-07-17T01:19:18;6.10;;;3.00;;
11675;SDS011;5894;42.768;23.404;2022-07-17T01:21:47;3.00;;;2.80;;
11675;SDS011;5894;42.768;23.404;2022-07-17T01:24:15;4.50;;;3.10;;
11675;SDS011;5894;42.768;23.404;2022-07-17T01:26:43;4.43;;;3.00;;
11675;SDS011;5894;42.768;23.404;2022-07-17T01:29:11;3.88;;;3.25;;
11675;SDS011;5894;42.768;23.404;2022-07-17T01:31:40;3.63;;;2.90;;
11675;SDS011;5894;42.768;23.404;2022-07-17T01:34:07;3.33;;;3.03;;
11675;SDS011;5894;42.768;23.404;2022-07-17T01:36:38;4.53;;;3.00;;
11675;SDS011;5894;42.768;23.404;2022-07-17T01:39:06;5.63;;;3.42;;
11675;SDS011;5894;42.768;23.404;2022-07-17T01:41:33;3.17;;;2.70;;
11675;SDS011;5894;42.768;23.404;2022-07-17T01:44:00;3.35;;;3.05;;
11675;SDS011;5894;42.768;23.404;2022-07-17T01:46:28;3.35;;;2.90;;
11675;SDS011;5894;42.768;23.404;2022-07-17T01:48:55;3.60;;;3.22;;
11675;SDS011;5894;42.768;23.404;2022-07-17T01:51:22;3.20;;;2.90;;
11675;SDS011;5894;42.768;23.404;2022-07-17T01:53:48;4.10;;;3.05;;
11675;SDS011;5894;42.768;23.404;2022-07-17T01:56:16;4.07;;;3.30;;
11675;SDS011;5894;42.768;23.404;2022-07-17T01:58:43;3.78;;;3.10;;
11675;SDS011;5894;42.768;23.404;2022-07-17T02:01:10;3.60;;;3.25;;
11675;SDS011;5894;42.768;23.404;2022-07-17T02:03:37;3.40;;;3.10;;
11675;SDS011;5894;42.768;23.404;2022-07-17T02:06:04;4.53;;;3.47;;
11675;SDS011;5894;42.768;23.404;2022-07-17T02:08:30;3.50;;;3.20;;
11675;SDS011;5894;42.768;23.404;2022-07-17T02:10:57;5.25;;;3.53;;
11675;SDS011;5894;42.768;23.404;2022-07-17T02:13:25;5.63;;;3.58;;
11675;SDS011;5894;42.768;23.404;2022-07-17T02:15:52;3.88;;;3.50;;
11675;SDS011;5894;42.768;23.404;2022-07-17T02:18:19;4.20;;;3.80;;
11675;SDS011;5894;42.768;23.404;2022-07-17T02:20:46;4.10;;;3.70;;
11675;SDS011;5894;42.768;23.404;2022-07-17T02:23:15;4.55;;;3.67;;
11675;SDS011;5894;42.768;23.404;2022-07-17T02:25:42;5.43;;;3.42;;
11675;SDS011;5894;42.768;23.404;2022-07-17T02:28:09;4.38;;;3.88;;
11675;SDS011;5894;42.768;23.404;2022-07-17T02:30:37;4.40;;;4.00;;
11675;SDS011;5894;42.768;23.404;2022-07-17T02:33:04;4.57;;;3.80;;
11675;SDS011;5894;42.768;23.404;2022-07-17T02:35:32;5.55;;;3.72;;
11675;SDS011;5894;42.768;23.404;2022-07-17T02:37:59;4.38;;;3.47;;
11675;SDS011;5894;42.768;23.404;2022-07-17T02:40:26;3.97;;;3.58;;
11675;SDS011;5894;42.768;23.404;2022-07-17T02:42:53;3.70;;;3.40;;
11675;SDS011;5894;42.768;23.404;2022-07-17T02:45:20;4.28;;;3.38;;
11675;SDS011;5894;42.768;23.404;2022-07-17T02:47:51;4.85;;;3.28;;
11675;SDS011;5894;42.768;23.404;2022-07-17T02:50:18;4.13;;;3.35;;
11675;SDS011;5894;42.768;23.404;2022-07-17T02:52:44;5.22;;;3.30;;
11675;SDS011;5894;42.768;23.404;2022-07-17T02:55:11;4.85;;;3.30;;
11675;SDS011;5894;42.768;23.404;2022-07-17T02:57:38;4.30;;;3.90;;
11675;SDS011;5894;42.768;23.404;2022-07-17T03:00:06;5.13;;;3.88;;
11675;SDS011;5894;42.768;23.404;2022-07-17T03:02:35;3.70;;;3.40;;
11675;SDS011;5894;42.768;23.404;2022-07-17T03:05:04;5.22;;;3.42;;
11675;SDS011;5894;42.768;23.404;2022-07-17T03:07:31;5.03;;;3.38;;
11675;SDS011;5894;42.768;23.404;2022-07-17T03:09:58;3.20;;;3.00;;
11675;SDS011;5894;42.768;23.404;2022-07-17T03:12:24;3.58;;;3.28;;
11675;SDS011;5894;42.768;23.404;2022-07-17T03:14:51;4.10;;;3.03;;
11675;SDS011;5894;42.768;23.404;2022-07-17T03:17:18;3.40;;;3.10;;
11675;SDS011;5894;42.768;23.404;2022-07-17T03:19:45;4.65;;;3.53;;
11675;SDS011;5894;42.768;23.404;2022-07-17T03:22:13;4.78;;;3.17;;
11675;SDS011;5894;42.768;23.404;2022-07-17T03:24:41;5.38;;;3.50;;
11675;SDS011;5894;42.768;23.404;2022-07-17T03:27:07;5.18;;;3.20;;
11675;SDS011;5894;42.768;23.404;2022-07-17T03:29:34;6.28;;;3.15;;
11675;SDS011;5894;42.768;23.404;2022-07-17T03:32:01;4.50;;;3.30;;
11675;SDS011;5894;42.768;23.404;2022-07-17T03:34:28;6.50;;;3.28;;
11675;SDS011;5894;42.768;23.404;2022-07-17T03:36:55;4.00;;;3.60;;
11675;SDS011;5894;42.768;23.404;2022-07-17T03:39:23;5.68;;;3.50;;
11675;SDS011;5894;42.768;23.404;2022-07-17T03:41:50;4.25;;;3.55;;
11675;SDS011;5894;42.768;23.404;2022-07-17T03:44:17;4.22;;;3.50;;
11675;SDS011;5894;42.768;23.404;2022-07-17T03:46:43;4.57;;;4.03;;
11675;SDS011;5894;42.768;23.404;2022-07-17T03:49:10;7.72;;;4.32;;
11675;SDS011;5894;42.768;23.404;2022-07-17T03:51:37;4.15;;;3.85;;
11675;SDS011;5894;42.768;23.404;2022-07-17T03:54:04;4.93;;;4.03;;
11675;SDS011;5894;42.768;23.404;2022-07-17T03:56:32;4.63;;;4.22;;
11675;SDS011;5894;42.768;23.404;2022-07-17T04:06:22;4.70;;;4.30;;
11675;SDS011;5894;42.768;23.404;2022-07-17T04:08:49;3.72;;;3.42;;
11675;SDS011;5894;42.768;23.404;2022-07-17T04:11:16;4.05;;;3.67;;
11675;SDS011;5894;42.768;23.404;2022-07-17T04:13:46;4.75;;;3.78;;
11675;SDS011;5894;42.768;23.404;2022-07-17T04:16:13;6.80;;;4.10;;
11675;SDS011;5894;42.768;23.404;2022-07-17T04:18:40;4.30;;;3.90;;
11675;SDS011;5894;42.768;23.404;2022-07-17T04:21:07;6.22;;;4.30;;
11675;SDS011;5894;42.768;23.404;2022-07-17T04:23:36;4.53;;;4.13;;
11675;SDS011;5894;42.768;23.404;2022-07-17T04:26:03;4.80;;;4.13;;
11675;SDS011;5894;42.768;23.404;2022-07-17T04:28:32;6.05;;;3.92;;
11675;SDS011;5894;42.768;23.404;2022-07-17T04:31:00;5.50;;;4.35;;
11675;SDS011;5894;42.768;23.404;2022-07-17T04:33:27;5.20;;;4.00;;
11675;SDS011;5894;42.768;23.404;2022-07-17T04:35:54;7.07;;;4.45;;
11675;SDS011;5894;42.768;23.404;2022-07-17T04:38:20;4.80;;;4.40;;
11675;SDS011;5894;42.768;23.404;2022-07-17T04:40:47;6.93;;;4.10;;
11675;SDS011;5894;42.768;23.404;2022-07-17T04:43:15;5.75;;;4.22;;
11675;SDS011;5894;42.768;23.404;2022-07-17T04:45:41;7.35;;;4.35;;
11675;SDS011;5894;42.768;23.404;2022-07-17T04:48:10;6.22;;;4.10;;
11675;SDS011;5894;42.768;23.404;2022-07-17T04:50:36;6.32;;;4.00;;
11675;SDS011;5894;42.768;23.404;2022-07-17T04:53:03;5.57;;;4.10;;
11675;SDS011;5894;42.768;23.404;2022-07-17T04:55:30;4.32;;;3.90;;
11675;SDS011;5894;42.768;23.404;2022-07-17T04:57:57;5.00;;;4.05;;
11675;SDS011;5894;42.768;23.404;2022-07-17T05:00:24;7.95;;;4.15;;
11675;SDS011;5894;42.768;23.404;2022-07-17T05:02:50;4.53;;;3.65;;
11675;SDS011;5894;42.768;23.404;2022-07-17T05:05:19;5.72;;;4.25;;
11675;SDS011;5894;42.768;23.404;2022-07-17T05:07:46;5.90;;;4.30;;
11675;SDS011;5894;42.768;23.404;2022-07-17T05:10:14;4.53;;;4.10;;
11675;SDS011;5894;42.768;23.404;2022-07-17T05:12:41;4.20;;;3.80;;
11675;SDS011;5894;42.768;23.404;2022-07-17T05:15:08;4.78;;;3.97;;
11675;SDS011;5894;42.768;23.404;2022-07-17T05:17:34;4.30;;;3.92;;
11675;SDS011;5894;42.768;23.404;2022-07-17T05:20:01;5.95;;;3.83;;
11675;SDS011;5894;42.768;23.404;2022-07-17T05:22:30;3.88;;;3.53;;
11675;SDS011;5894;42.768;23.404;2022-07-17T05:24:57;4.80;;;4.00;;
11675;SDS011;5894;42.768;23.404;2022-07-17T05:27:24;6.10;;;3.38;;
11675;SDS011;5894;42.768;23.404;2022-07-17T05:29:51;5.28;;;3.50;;
11675;SDS011;5894;42.768;23.404;2022-07-17T05:32:17;4.50;;;3.70;;
11675;SDS011;5894;42.768;23.404;2022-07-17T05:34:44;3.42;;;3.10;;
11675;SDS011;5894;42.768;23.404;2022-07-17T05:37:11;4.35;;;3.22;;
11675;SDS011;5894;42.768;23.404;2022-07-17T05:39:39;6.47;;;3.75;;
11675;SDS011;5894;42.768;23.404;2022-07-17T05:42:06;4.72;;;3.30;;
11675;SDS011;5894;42.768;23.404;2022-07-17T05:44:33;4.05;;;3.25;;
11675;SDS011;5894;42.768;23.404;2022-07-17T05:47:00;4.93;;;3.05;;
11675;SDS011;5894;42.768;23.404;2022-07-17T05:49:26;3.55;;;2.97;;
11675;SDS011;5894;42.768;23.404;2022-07-17T05:51:53;3.00;;;2.70;;
11675;SDS011;5894;42.768;23.404;2022-07-17T05:54:20;3.72;;;2.92;;
11675;SDS011;5894;42.768;23.404;2022-07-17T05:56:48;3.28;;;2.95;;
11675;SDS011;5894;42.768;23.404;2022-07-17T05:59:15;3.60;;;2.70;;
11675;SDS011;5894;42.768;23.404;2022-07-17T06:01:42;3.00;;;2.70;;
11675;SDS011;5894;42.768;23.404;2022-07-17T06:04:08;2.80;;;2.60;;
11675;SDS011;5894;42.768;23.404;2022-07-17T06:06:35;6.78;;;3.13;;
11675;SDS011;5894;42.768;23.404;2022-07-17T06:09:02;3.47;;;2.67;;
11675;SDS011;5894;42.768;23.404;2022-07-17T06:11:29;2.47;;;2.28;;
11675;SDS011;5894;42.768;23.404;2022-07-17T06:13:57;5.82;;;2.70;;
11675;SDS011;5894;42.768;23.404;2022-07-17T06:16:24;3.40;;;2.70;;
11675;SDS011;5894;42.768;23.404;2022-07-17T06:18:51;5.50;;;2.50;;
11675;SDS011;5894;42.768;23.404;2022-07-17T06:21:19;4.65;;;2.88;;
11675;SDS011;5894;42.768;23.404;2022-07-17T06:23:46;3.65;;;2.50;;
11675;SDS011;5894;42.768;23.404;2022-07-17T06:26:12;3.58;;;2.40;;
11675;SDS011;5894;42.768;23.404;2022-07-17T06:28:39;3.10;;;2.60;;
11675;SDS011;5894;42.768;23.404;2022-07-17T06:31:07;3.05;;;2.60;;
11675;SDS011;5894;42.768;23.404;2022-07-17T06:33:34;4.45;;;2.75;;
11675;SDS011;5894;42.768;23.404;2022-07-17T06:36:02;6.68;;;2.70;;
11675;SDS011;5894;42.768;23.404;2022-07-17T06:38:29;3.13;;;2.88;;
11675;SDS011;5894;42.768;23.404;2022-07-17T06:40:56;5.45;;;2.53;;
11675;SDS011;5894;42.768;23.404;2022-07-17T06:43:23;4.43;;;2.78;;
11675;SDS011;5894;42.768;23.404;2022-07-17T06:45:49;3.50;;;2.83;;
11675;SDS011;5894;42.768;23.404;2022-07-17T06:48:20;3.00;;;2.50;;
11675;SDS011;5894;42.768;23.404;2022-07-17T06:50:47;5.05;;;2.78;;
11675;SDS011;5894;42.768;23.404;2022-07-17T06:53:14;3.20;;;2.60;;
11675;SDS011;5894;42.768;23.404;2022-07-17T06:55:42;4.05;;;2.67;;
11675;SDS011;5894;42.768;23.404;2022-07-17T06:58:08;4.47;;;2.53;;
11675;SDS011;5894;42.768;23.404;2022-07-17T07:00:35;5.38;;;2.70;;
11675;SDS011;5894;42.768;23.404;2022-07-17T07:03:02;6.55;;;2.80;;
11675;SDS011;5894;42.768;23.404;2022-07-17T07:05:30;3.38;;;2.60;;
11675;SDS011;5894;42.768;23.404;2022-07-17T07:07:57;27.17;;;4.22;;
11675;SDS011;5894;42.768;23.404;2022-07-17T07:10:24;3.67;;;2.75;;
11675;SDS011;5894;42.768;23.404;2022-07-17T07:12:51;3.60;;;2.58;;
11675;SDS011;5894;42.768;23.404;2022-07-17T07:15:17;4.32;;;3.00;;
11675;SDS011;5894;42.768;23.404;2022-07-17T07:17:44;4.28;;;2.70;;
11675;SDS011;5894;42.768;23.404;2022-07-17T07:20:11;3.08;;;2.42;;
11675;SDS011;5894;42.768;23.404;2022-07-17T07:22:39;4.85;;;2.20;;
11675;SDS011;5894;42.768;23.404;2022-07-17T07:25:07;4.03;;;2.60;;
11675;SDS011;5894;42.768;23.404;2022-07-17T07:27:34;3.58;;;2.50;;
11675;SDS011;5894;42.768;23.404;2022-07-17T07:30:01;3.53;;;2.30;;
11675;SDS011;5894;42.768;23.404;2022-07-17T07:32:28;2.42;;;2.20;;
11675;SDS011;5894;42.768;23.404;2022-07-17T07:34:55;6.88;;;2.50;;
11675;SDS011;5894;42.768;23.404;2022-07-17T07:37:21;3.45;;;2.20;;
11675;SDS011;5894;42.768;23.404;2022-07-17T07:39:50;4.65;;;2.40;;
11675;SDS011;5894;42.768;23.404;2022-07-17T07:42:16;5.13;;;2.47;;
11675;SDS011;5894;42.768;23.404;2022-07-17T07:44:43;2.90;;;2.10;;
11675;SDS011;5894;42.768;23.404;2022-07-17T07:47:11;6.90;;;2.50;;
11675;SDS011;5894;42.768;23.404;2022-07-17T07:49:38;3.17;;;2.20;;
11675;SDS011;5894;42.768;23.404;2022-07-17T07:52:05;3.63;;;2.30;;
11675;SDS011;5894;42.768;23.404;2022-07-17T07:54:32;4.55;;;2.30;;
11675;SDS011;5894;42.768;23.404;2022-07-17T07:57:01;2.58;;;2.13;;
11675;SDS011;5894;42.768;23.404;2022-07-17T07:59:28;3.35;;;2.30;;
11675;SDS011;5894;42.768;23.404;2022-07-17T08:01:58;2.47;;;2.22;;
11675;SDS011;5894;42.768;23.404;2022-07-17T08:04:25;2.30;;;2.10;;
11675;SDS011;5894;42.768;23.404;2022-07-17T08:06:52;2.50;;;2.30;;
11675;SDS011;5894;42.768;23.404;2022-07-17T08:09:19;2.30;;;2.08;;
11675;SDS011;5894;42.768;23.404;2022-07-17T08:11:46;5.45;;;2.50;;
11675;SDS011;5894;42.768;23.404;2022-07-17T08:14:14;2.97;;;2.38;;
11675;SDS011;5894;42.768;23.404;2022-07-17T08:16:41;3.50;;;2.20;;
11675;SDS011;5894;42.768;23.404;2022-07-17T08:19:08;5.22;;;2.00;;
11675;SDS011;5894;42.768;23.404;2022-07-17T08:21:35;2.80;;;2.40;;
11675;SDS011;5894;42.768;23.404;2022-07-17T08:24:02;2.40;;;2.20;;
11675;SDS011;5894;42.768;23.404;2022-07-17T08:26:29;3.88;;;2.28;;
11675;SDS011;5894;42.768;23.404;2022-07-17T08:28:56;4.78;;;2.40;;
11675;SDS011;5894;42.768;23.404;2022-07-17T08:31:24;3.17;;;2.17;;
11675;SDS011;5894;42.768;23.404;2022-07-17T08:33:51;4.07;;;2.13;;
11675;SDS011;5894;42.768;23.404;2022-07-17T08:36:17;2.40;;;2.20;;
11675;SDS011;5894;42.768;23.404;2022-07-17T08:38:44;3.42;;;2.65;;
11675;SDS011;5894;42.768;23.404;2022-07-17T08:41:11;2.92;;;2.20;;
11675;SDS011;5894;42.768;23.404;2022-07-17T08:43:41;4.40;;;2.20;;
11675;SDS011;5894;42.768;23.404;2022-07-17T08:46:09;2.70;;;2.13;;
11675;SDS011;5894;42.768;23.404;2022-07-17T08:48:38;4.18;;;2.13;;
11675;SDS011;5894;42.768;23.404;2022-07-17T08:51:07;2.80;;;2.45;;
11675;SDS011;5894;42.768;23.404;2022-07-17T08:53:34;5.03;;;2.72;;
11675;SDS011;5894;42.768;23.404;2022-07-17T08:56:02;4.15;;;2.15;;
11675;SDS011;5894;42.768;23.404;2022-07-17T08:58:30;2.28;;;2.10;;
11675;SDS011;5894;42.768;23.404;2022-07-17T09:00:56;3.35;;;2.17;;
11675;SDS011;5894;42.768;23.404;2022-07-17T09:03:24;2.90;;;2.20;;
11675;SDS011;5894;42.768;23.404;2022-07-17T09:05:52;3.17;;;2.30;;
11675;SDS011;5894;42.768;23.404;2022-07-17T09:08:20;5.35;;;2.20;;
11675;SDS011;5894;42.768;23.404;2022-07-17T09:10:48;3.35;;;2.30;;
11675;SDS011;5894;42.768;23.404;2022-07-17T09:13:19;4.60;;;2.05;;
11675;SDS011;5894;42.768;23.404;2022-07-17T09:15:48;3.40;;;2.30;;
11675;SDS011;5894;42.768;23.404;2022-07-17T09:18:16;2.45;;;2.22;;
11675;SDS011;5894;42.768;23.404;2022-07-17T09:20:44;5.25;;;2.60;;
11675;SDS011;5894;42.768;23.404;2022-07-17T09:23:14;5.30;;;2.30;;
11675;SDS011;5894;42.768;23.404;2022-07-17T09:25:42;2.92;;;2.10;;
11675;SDS011;5894;42.768;23.404;2022-07-17T09:28:11;2.38;;;2.17;;
11675;SDS011;5894;42.768;23.404;2022-07-17T09:30:40;2.55;;;2.35;;
11675;SDS011;5894;42.768;23.404;2022-07-17T09:33:11;3.10;;;2.20;;
11675;SDS011;5894;42.768;23.404;2022-07-17T09:35:46;2.85;;;2.50;;
11675;SDS011;5894;42.768;23.404;2022-07-17T09:38:26;4.10;;;2.75;;
11675;SDS011;5894;42.768;23.404;2022-07-17T09:41:01;2.50;;;2.30;;
11675;SDS011;5894;42.768;23.404;2022-07-17T09:43:42;2.15;;;2.05;;
11675;SDS011;5894;42.768;23.404;2022-07-17T09:46:11;5.45;;;2.30;;
11675;SDS011;5894;42.768;23.404;2022-07-17T09:48:41;4.07;;;2.20;;
11675;SDS011;5894;42.768;23.404;2022-07-17T09:51:13;2.35;;;2.15;;
11675;SDS011;5894;42.768;23.404;2022-07-17T09:53:44;2.33;;;2.10;;
11675;SDS011;5894;42.768;23.404;2022-07-17T09:56:13;3.50;;;2.10;;
11675;SDS011;5894;42.768;23.404;2022-07-17T09:58:42;3.55;;;2.10;;
11675;SDS011;5894;42.768;23.404;2022-07-17T10:01:12;3.42;;;2.30;;
11675;SDS011;5894;42.768;23.404;2022-07-17T10:03:40;6.60;;;2.40;;
11675;SDS011;5894;42.768;23.404;2022-07-17T10:06:07;6.25;;;2.55;;
11675;SDS011;5894;42.768;23.404;2022-07-17T10:08:35;8.18;;;2.38;;
11675;SDS011;5894;42.768;23.404;2022-07-17T10:11:04;3.45;;;2.05;;
11675;SDS011;5894;42.768;23.404;2022-07-17T10:13:31;3.70;;;2.25;;
11675;SDS011;5894;42.768;23.404;2022-07-17T10:15:58;2.20;;;2.00;;
11675;SDS011;5894;42.768;23.404;2022-07-17T10:18:33;3.58;;;2.30;;
11675;SDS011;5894;42.768;23.404;2022-07-17T10:21:11;2.47;;;2.10;;
11675;SDS011;5894;42.768;23.404;2022-07-17T10:23:39;2.25;;;2.03;;
11675;SDS011;5894;42.768;23.404;2022-07-17T10:26:08;3.97;;;2.10;;
11675;SDS011;5894;42.768;23.404;2022-07-17T10:28:46;2.95;;;2.47;;
11675;SDS011;5894;42.768;23.404;2022-07-17T10:31:22;2.40;;;2.10;;
11675;SDS011;5894;42.768;23.404;2022-07-17T10:33:59;4.70;;;2.25;;
11675;SDS011;5894;42.768;23.404;2022-07-17T10:36:33;4.40;;;2.40;;
11675;SDS011;5894;42.768;23.404;2022-07-17T10:39:11;2.65;;;2.22;;
11675;SDS011;5894;42.768;23.404;2022-07-17T10:41:43;4.72;;;2.63;;
11675;SDS011;5894;42.768;23.404;2022-07-17T10:44:23;2.30;;;2.10;;
11675;SDS011;5894;42.768;23.404;2022-07-17T10:46:52;3.70;;;2.30;;
11675;SDS011;5894;42.768;23.404;2022-07-17T10:49:21;3.30;;;2.33;;
11675;SDS011;5894;42.768;23.404;2022-07-17T10:51:49;2.67;;;2.20;;
11675;SDS011;5894;42.768;23.404;2022-07-17T10:54:17;2.30;;;2.10;;
11675;SDS011;5894;42.768;23.404;2022-07-17T10:56:45;4.63;;;2.40;;
11675;SDS011;5894;42.768;23.404;2022-07-17T10:59:13;3.47;;;2.20;;
11675;SDS011;5894;42.768;23.404;2022-07-17T11:01:39;5.47;;;2.20;;
11675;SDS011;5894;42.768;23.404;2022-07-17T11:04:06;3.60;;;1.90;;
11675;SDS011;5894;42.768;23.404;2022-07-17T11:06:34;2.20;;;2.00;;
11675;SDS011;5894;42.768;23.404;2022-07-17T11:09:02;2.50;;;2.30;;
11675;SDS011;5894;42.768;23.404;2022-07-17T11:11:37;3.60;;;2.20;;
11675;SDS011;5894;42.768;23.404;2022-07-17T11:14:10;2.40;;;2.20;;
11675;SDS011;5894;42.768;23.404;2022-07-17T11:16:43;3.67;;;2.15;;
11675;SDS011;5894;42.768;23.404;2022-07-17T11:19:11;2.17;;;2.08;;
11675;SDS011;5894;42.768;23.404;2022-07-17T11:21:45;4.15;;;2.50;;
11675;SDS011;5894;42.768;23.404;2022-07-17T11:24:12;2.75;;;2.45;;
11675;SDS011;5894;42.768;23.404;2022-07-17T11:26:39;4.22;;;2.30;;
11675;SDS011;5894;42.768;23.404;2022-07-17T11:29:06;2.38;;;2.10;;
11675;SDS011;5894;42.768;23.404;2022-07-17T11:31:34;2.55;;;2.15;;
11675;SDS011;5894;42.768;23.404;2022-07-17T11:34:03;5.43;;;2.25;;
11675;SDS011;5894;42.768;23.404;2022-07-17T11:36:35;4.82;;;2.30;;
11675;SDS011;5894;42.768;23.404;2022-07-17T11:39:05;4.07;;;3.08;;
11675;SDS011;5894;42.768;23.404;2022-07-17T11:41:36;2.88;;;2.58;;
11675;SDS011;5894;42.768;23.404;2022-07-17T11:44:04;3.13;;;2.40;;
11675;SDS011;5894;42.768;23.404;2022-07-17T11:46:37;5.38;;;2.47;;
11675;SDS011;5894;42.768;23.404;2022-07-17T11:49:05;3.20;;;2.50;;
11675;SDS011;5894;42.768;23.404;2022-07-17T11:51:36;3.28;;;2.80;;
11675;SDS011;5894;42.768;23.404;2022-07-17T11:54:05;2.85;;;2.65;;
11675;SDS011;5894;42.768;23.404;2022-07-17T11:56:33;3.60;;;2.78;;
11675;SDS011;5894;42.768;23.404;2022-07-17T11:59:00;4.03;;;2.60;;
11675;SDS011;5894;42.768;23.404;2022-07-17T12:01:27;3.55;;;2.75;;
11675;SDS011;5894;42.768;23.404;2022-07-17T12:03:57;3.20;;;2.38;;
11675;SDS011;5894;42.768;23.404;2022-07-17T12:06:24;3.05;;;2.22;;
11675;SDS011;5894;42.768;23.404;2022-07-17T12:08:52;2.50;;;2.30;;
11675;SDS011;5894;42.768;23.404;2022-07-17T12:11:19;3.70;;;2.70;;
11675;SDS011;5894;42.768;23.404;2022-07-17T12:13:47;2.65;;;2.45;;
11675;SDS011;5894;42.768;23.404;2022-07-17T12:16:17;4.75;;;2.67;;
11675;SDS011;5894;42.768;23.404;2022-07-17T12:18:54;4.07;;;2.65;;
11675;SDS011;5894;42.768;23.404;2022-07-17T12:21:24;3.50;;;3.05;;
11675;SDS011;5894;42.768;23.404;2022-07-17T12:23:58;6.00;;;2.72;;
11675;SDS011;5894;42.768;23.404;2022-07-17T12:26:27;3.25;;;2.95;;
11675;SDS011;5894;42.768;23.404;2022-07-17T12:28:55;3.33;;;3.03;;
11675;SDS011;5894;42.768;23.404;2022-07-17T12:31:21;2.50;;;2.30;;
11675;SDS011;5894;42.768;23.404;2022-07-17T12:33:50;4.82;;;2.85;;
11675;SDS011;5894;42.768;23.404;2022-07-17T12:36:19;4.22;;;2.53;;
11675;SDS011;5894;42.768;23.404;2022-07-17T12:38:47;2.85;;;2.35;;
11675;SDS011;5894;42.768;23.404;2022-07-17T12:41:14;2.55;;;2.33;;
11675;SDS011;5894;42.768;23.404;2022-07-17T12:43:41;2.30;;;2.10;;
11675;SDS011;5894;42.768;23.404;2022-07-17T12:46:08;3.35;;;2.80;;
11675;SDS011;5894;42.768;23.404;2022-07-17T12:48:35;2.50;;;2.30;;
11675;SDS011;5894;42.768;23.404;2022-07-17T12:51:04;3.03;;;2.55;;
11675;SDS011;5894;42.768;23.404;2022-07-17T12:53:31;2.88;;;2.10;;
11675;SDS011;5894;42.768;23.404;2022-07-17T12:55:59;3.03;;;2.20;;
11675;SDS011;5894;42.768;23.404;2022-07-17T12:58:28;3.63;;;2.13;;
11675;SDS011;5894;42.768;23.404;2022-07-17T13:00:55;2.60;;;2.40;;
11675;SDS011;5894;42.768;23.404;2022-07-17T13:03:22;2.95;;;2.22;;
11675;SDS011;5894;42.768;23.404;2022-07-17T13:05:49;2.63;;;2.17;;
11675;SDS011;5894;42.768;23.404;2022-07-17T13:08:15;3.13;;;2.30;;
11675;SDS011;5894;42.768;23.404;2022-07-17T13:10:42;4.65;;;4.13;;
11675;SDS011;5894;42.768;23.404;2022-07-17T13:13:10;4.68;;;2.53;;
11675;SDS011;5894;42.768;23.404;2022-07-17T13:15:37;3.42;;;2.40;;
11675;SDS011;5894;42.768;23.404;2022-07-17T13:18:04;3.05;;;2.40;;
11675;SDS011;5894;42.768;23.404;2022-07-17T13:20:31;3.20;;;2.40;;
11675;SDS011;5894;42.768;23.404;2022-07-17T13:22:58;2.78;;;2.42;;
11675;SDS011;5894;42.768;23.404;2022-07-17T13:25:25;3.80;;;2.42;;
11675;SDS011;5894;42.768;23.404;2022-07-17T13:27:52;3.63;;;2.72;;
11675;SDS011;5894;42.768;23.404;2022-07-17T13:30:20;2.53;;;2.33;;
11675;SDS011;5894;42.768;23.404;2022-07-17T13:32:47;2.42;;;2.22;;
11675;SDS011;5894;42.768;23.404;2022-07-17T13:35:13;4.82;;;2.90;;
11675;SDS011;5894;42.768;23.404;2022-07-17T13:37:43;2.95;;;2.70;;
11675;SDS011;5894;42.768;23.404;2022-07-17T13:40:10;3.05;;;2.17;;
11675;SDS011;5894;42.768;23.404;2022-07-17T13:42:37;3.22;;;2.60;;
11675;SDS011;5894;42.768;23.404;2022-07-17T13:45:05;3.88;;;2.80;;
11675;SDS011;5894;42.768;23.404;2022-07-17T13:47:33;4.43;;;2.45;;
11675;SDS011;5894;42.768;23.404;2022-07-17T13:50:00;4.60;;;2.80;;
11675;SDS011;5894;42.768;23.404;2022-07-17T13:52:27;3.35;;;2.95;;
11675;SDS011;5894;42.768;23.404;2022-07-17T13:54:54;3.65;;;2.65;;
11675;SDS011;5894;42.768;23.404;2022-07-17T13:57:21;3.88;;;3.00;;
11675;SDS011;5894;42.768;23.404;2022-07-17T13:59:48;4.53;;;2.75;;
11675;SDS011;5894;42.768;23.404;2022-07-17T14:02:15;3.00;;;2.78;;
11675;SDS011;5894;42.768;23.404;2022-07-17T14:04:43;3.03;;;2.70;;
11675;SDS011;5894;42.768;23.404;2022-07-17T14:07:10;3.95;;;2.67;;
11675;SDS011;5894;42.768;23.404;2022-07-17T14:09:37;2.95;;;2.42;;
11675;SDS011;5894;42.768;23.404;2022-07-17T14:12:04;3.55;;;2.70;;
11675;SDS011;5894;42.768;23.404;2022-07-17T14:14:31;6.95;;;2.90;;
11675;SDS011;5894;42.768;23.404;2022-07-17T14:16:57;2.58;;;2.38;;
11675;SDS011;5894;42.768;23.404;2022-07-17T14:19:25;2.92;;;2.40;;
11675;SDS011;5894;42.768;23.404;2022-07-17T14:21:53;2.45;;;2.20;;
11675;SDS011;5894;42.768;23.404;2022-07-17T14:24:20;2.70;;;2.40;;
11675;SDS011;5894;42.768;23.404;2022-07-17T14:26:47;3.22;;;2.53;;
11675;SDS011;5894;42.768;23.404;2022-07-17T14:29:13;4.35;;;2.28;;
11675;SDS011;5894;42.768;23.404;2022-07-17T14:31:41;3.25;;;2.42;;
11675;SDS011;5894;42.768;23.404;2022-07-17T14:34:07;3.45;;;2.78;;
11675;SDS011;5894;42.768;23.404;2022-07-17T14:36:34;2.78;;;2.58;;
11675;SDS011;5894;42.768;23.404;2022-07-17T14:39:02;2.58;;;2.35;;
11675;SDS011;5894;42.768;23.404;2022-07-17T14:41:29;2.83;;;2.17;;
11675;SDS011;5894;42.768;23.404;2022-07-17T14:43:56;13.13;;;9.40;;
11675;SDS011;5894;42.768;23.404;2022-07-17T14:46:23;7.22;;;4.13;;
11675;SDS011;5894;42.768;23.404;2022-07-17T14:48:50;3.13;;;2.85;;
11675;SDS011;5894;42.768;23.404;2022-07-17T14:51:17;2.97;;;2.67;;
11675;SDS011;5894;42.768;23.404;2022-07-17T14:53:44;3.53;;;2.50;;
11675;SDS011;5894;42.768;23.404;2022-07-17T14:56:12;2.60;;;2.40;;
11675;SDS011;5894;42.768;23.404;2022-07-17T14:58:39;4.47;;;2.38;;